Time;durP1;ratioP1;P1;durP2;ratioP2;P2;SDS_P1;SDS_P2;PMS_P1;PMS_P2;Temp;Humidity;BMP_temperature;BMP_pressure;BME280_temperature;BME280_humidity;BME280_pressure;Samples;Min_cycle;Max_cycle;Signal;HPM_P1;HPM_P2
2023/03/06 00:02:09;;;;;;;26.37;9.50;;;6.10;99.90;;;;;;4990834;28;20429;-71
2023/03/06 00:04:37;;;;;;;21.93;11.83;;;6.10;99.90;;;;;;5007253;28;20508;-71
2023/03/06 00:07:04;;;;;;;24.53;9.90;;;6.10;99.90;;;;;;4994557;28;20544;-70
2023/03/06 00:09:32;;;;;;;6.90;4.00;;;6.00;99.90;;;;;;5010905;28;20504;-70
2023/03/06 00:11:59;;;;;;;13.40;8.60;;;5.90;99.90;;;;;;5008580;28;20519;-70
2023/03/06 00:14:26;;;;;;;6.20;5.47;;;5.60;99.90;;;;;;5029594;28;20465;-72
2023/03/06 00:16:54;;;;;;;7.40;4.40;;;5.50;99.90;;;;;;5004547;28;20452;-71
2023/03/06 00:19:21;;;;;;;6.80;4.83;;;5.50;99.90;;;;;;5001703;28;20454;-71
2023/03/06 00:21:48;;;;;;;7.97;5.80;;;5.40;99.90;;;;;;5001662;28;20810;-71
2023/03/06 00:24:15;;;;;;;13.30;7.70;;;5.40;99.90;;;;;;5007758;28;20437;-71
2023/03/06 00:26:44;;;;;;;14.23;7.97;;;5.40;99.90;;;;;;5005721;28;20448;-71
2023/03/06 00:29:11;;;;;;;15.57;6.47;;;5.50;99.90;;;;;;4998605;28;20460;-71
2023/03/06 00:31:38;;;;;;;10.03;6.63;;;5.50;99.90;;;;;;5007962;28;20531;-71
2023/03/06 00:34:05;;;;;;;11.33;5.63;;;5.50;99.90;;;;;;5014128;28;20446;-71
2023/03/06 00:36:32;;;;;;;7.87;4.87;;;5.50;99.90;;;;;;5012939;28;20473;-71
2023/03/06 00:38:58;;;;;;;8.67;6.30;;;5.40;99.90;;;;;;5004335;28;20897;-71
2023/03/06 00:41:25;;;;;;;8.97;5.43;;;5.50;99.90;;;;;;5015808;28;20439;-71
2023/03/06 00:43:54;;;;;;;13.87;5.60;;;5.60;99.90;;;;;;5017474;28;20476;-70
2023/03/06 00:46:21;;;;;;;10.10;5.17;;;5.70;99.90;;;;;;5021033;28;20444;-71
2023/03/06 00:48:48;;;;;;;10.87;6.67;;;5.70;99.90;;;;;;5012588;28;20499;-70
2023/03/06 00:51:18;;;;;;;7.20;5.33;;;5.70;99.90;;;;;;5010642;28;20493;-71
2023/03/06 00:53:45;;;;;;;13.17;7.87;;;5.60;99.90;;;;;;5005480;28;20460;-71
2023/03/06 00:56:12;;;;;;;8.30;6.10;;;5.50;99.90;;;;;;5005596;28;20600;-71
2023/03/06 00:58:39;;;;;;;8.57;5.37;;;5.50;99.90;;;;;;5017169;28;20440;-71
2023/03/06 01:01:08;;;;;;;8.57;6.13;;;5.40;99.90;;;;;;5003364;28;20456;-71
2023/03/06 01:03:35;;;;;;;12.97;7.20;;;5.60;99.90;;;;;;5004366;28;20540;-71
2023/03/06 01:06:02;;;;;;;11.67;6.57;;;5.50;99.90;;;;;;5009079;28;20481;-70
2023/03/06 01:08:29;;;;;;;13.17;7.00;;;5.50;99.90;;;;;;5002129;28;20540;-71
2023/03/06 01:10:55;;;;;;;9.40;5.23;;;5.50;99.90;;;;;;5009328;28;20496;-71
2023/03/06 01:13:22;;;;;;;7.63;4.57;;;5.40;99.90;;;;;;5007142;28;20544;-71
2023/03/06 01:15:49;;;;;;;9.10;5.30;;;5.40;99.90;;;;;;5000692;28;20453;-71
2023/03/06 01:18:18;;;;;;;11.00;5.13;;;5.20;99.90;;;;;;4997541;28;21014;-71
2023/03/06 01:20:45;;;;;;;11.10;6.10;;;5.20;99.90;;;;;;5005154;28;20501;-72
2023/03/06 01:23:12;;;;;;;6.67;5.30;;;5.20;99.90;;;;;;5018905;28;20498;-71
2023/03/06 01:25:39;;;;;;;10.63;5.50;;;5.20;99.90;;;;;;5011540;28;20460;-71
2023/03/06 01:28:06;;;;;;;7.47;3.70;;;5.10;99.90;;;;;;5016591;28;20592;-71
2023/03/06 01:30:32;;;;;;;8.27;5.57;;;5.20;99.90;;;;;;5013399;28;20494;-71
2023/03/06 01:33:00;;;;;;;9.57;5.33;;;5.00;99.90;;;;;;5013974;28;20448;-70
2023/03/06 01:35:29;;;;;;;7.30;4.60;;;5.10;99.90;;;;;;5013146;28;20428;-71
2023/03/06 01:37:56;;;;;;;5.60;3.97;;;5.10;99.90;;;;;;5003538;28;20468;-70
2023/03/06 01:40:22;;;;;;;7.67;4.83;;;5.20;99.90;;;;;;5012034;28;20820;-71
2023/03/06 01:42:50;;;;;;;11.67;6.20;;;5.20;99.90;;;;;;5003866;28;21040;-71
2023/03/06 01:45:54;;;;;;;6.20;5.60;;;5.40;99.90;;;;;;5007031;28;20465;-70
2023/03/06 01:48:24;;;;;;;10.53;5.20;;;5.50;99.90;;;;;;5011075;28;20902;-71
2023/03/06 01:50:53;;;;;;;9.50;4.93;;;5.50;99.90;;;;;;5010459;28;20524;-71
2023/03/06 01:53:21;;;;;;;8.07;4.10;;;5.50;99.90;;;;;;4981035;28;20864;-71
2023/03/06 01:55:48;;;;;;;4.90;4.33;;;5.50;99.90;;;;;;5009796;28;20835;-71
2023/03/06 01:58:18;;;;;;;5.83;4.43;;;5.40;99.90;;;;;;5012404;28;20424;-71
2023/03/06 02:00:45;;;;;;;5.97;5.10;;;5.30;99.90;;;;;;5010859;28;20439;-71
2023/03/06 02:03:15;;;;;;;12.57;5.20;;;5.30;99.90;;;;;;4991200;28;20436;-71
2023/03/06 02:05:43;;;;;;;5.43;3.53;;;5.20;99.90;;;;;;4996353;28;20439;-71
2023/03/06 02:08:16;;;;;;;5.17;4.00;;;5.30;99.90;;;;;;5001888;28;20798;-70
2023/03/06 02:10:43;;;;;;;7.60;4.67;;;5.40;99.90;;;;;;5006498;28;21047;-71
2023/03/06 02:13:10;;;;;;;14.13;4.40;;;5.20;99.90;;;;;;5009542;28;20464;-71
2023/03/06 02:15:37;;;;;;;7.70;5.20;;;5.30;99.90;;;;;;5014179;28;20468;-71
2023/03/06 02:18:04;;;;;;;6.53;4.43;;;5.40;99.90;;;;;;5012686;28;21015;-71
2023/03/06 02:20:36;;;;;;;8.30;4.40;;;5.40;99.90;;;;;;5006881;28;20522;-71
2023/03/06 02:23:08;;;;;;;7.20;5.00;;;5.30;99.90;;;;;;5006941;28;20595;-71
2023/03/06 02:25:40;;;;;;;5.60;4.23;;;5.40;99.90;;;;;;5010960;28;20983;-71
2023/03/06 02:28:09;;;;;;;8.07;6.80;;;5.40;99.90;;;;;;5008103;28;20460;-71
2023/03/06 02:30:37;;;;;;;6.80;6.07;;;5.30;99.90;;;;;;5014558;28;20428;-70
2023/03/06 02:33:04;;;;;;;8.47;4.00;;;5.20;99.90;;;;;;5018203;28;20437;-70
2023/03/06 02:35:33;;;;;;;10.70;5.63;;;5.10;99.90;;;;;;5009384;28;20516;-71
2023/03/06 02:38:06;;;;;;;11.30;7.33;;;5.00;99.90;;;;;;5008860;28;20447;-71
2023/03/06 02:40:32;;;;;;;9.87;7.03;;;5.00;99.90;;;;;;5012899;28;20456;-71
2023/03/06 02:43:02;;;;;;;12.17;5.77;;;4.90;99.90;;;;;;5008330;28;20456;-71
2023/03/06 02:45:34;;;;;;;8.23;5.03;;;4.80;99.90;;;;;;5014359;28;20974;-71
2023/03/06 02:48:01;;;;;;;9.80;5.00;;;4.90;99.90;;;;;;5002676;28;20848;-71
2023/03/06 02:50:28;;;;;;;7.57;5.20;;;5.10;99.90;;;;;;5008646;28;20979;-71
2023/03/06 02:52:55;;;;;;;10.07;6.17;;;5.10;99.90;;;;;;5011983;28;20429;-70
2023/03/06 02:55:22;;;;;;;7.47;5.67;;;5.20;99.90;;;;;;5006007;28;20522;-71
2023/03/06 02:57:49;;;;;;;8.47;4.93;;;5.10;99.90;;;;;;5012495;28;20479;-71
2023/03/06 03:00:19;;;;;;;9.23;4.17;;;5.10;99.90;;;;;;5003694;28;20534;-71
2023/03/06 03:02:46;;;;;;;11.60;4.80;;;5.00;99.90;;;;;;5011405;28;20458;-71
2023/03/06 03:05:13;;;;;;;4.90;3.77;;;4.90;99.90;;;;;;5014787;28;20862;-70
2023/03/06 03:07:40;;;;;;;5.40;4.00;;;4.90;99.90;;;;;;5003493;28;20459;-71
2023/03/06 03:10:11;;;;;;;9.07;3.70;;;4.90;99.90;;;;;;5004722;28;20428;-71
2023/03/06 03:12:38;;;;;;;3.87;3.57;;;4.90;99.90;;;;;;5010240;28;20444;-71
2023/03/06 03:15:07;;;;;;;1.83;1.63;;;4.90;99.90;;;;;;5007471;28;20519;-71
2023/03/06 03:17:39;;;;;;;3.93;3.53;;;4.90;99.90;;;;;;5004670;28;20470;-71
2023/03/06 03:20:09;;;;;;;6.43;4.33;;;4.80;99.90;;;;;;5006819;28;20450;-71
2023/03/06 03:22:36;;;;;;;5.90;3.67;;;4.90;99.90;;;;;;5012126;28;20475;-71
2023/03/06 03:25:03;;;;;;;6.23;4.53;;;4.80;99.90;;;;;;5006100;28;20507;-71
2023/03/06 03:27:30;;;;;;;7.70;4.00;;;4.90;99.90;;;;;;5001313;28;20450;-71
2023/03/06 03:29:58;;;;;;;6.50;3.23;;;4.90;99.90;;;;;;5007611;28;20825;-70
2023/03/06 03:32:25;;;;;;;5.53;3.37;;;4.90;99.90;;;;;;5010426;28;20432;-71
2023/03/06 03:34:55;;;;;;;6.00;4.67;;;4.90;99.90;;;;;;5013695;28;20432;-71
2023/03/06 03:37:22;;;;;;;7.83;4.67;;;4.90;99.90;;;;;;5013573;28;20458;-71
2023/03/06 03:39:49;;;;;;;13.10;6.00;;;4.80;99.90;;;;;;5014328;28;20431;-71
2023/03/06 03:42:16;;;;;;;8.23;5.37;;;4.90;99.90;;;;;;5007784;28;20805;-71
2023/03/06 03:44:44;;;;;;;7.87;5.03;;;5.00;99.90;;;;;;5012492;28;20436;-71
2023/03/06 03:47:10;;;;;;;12.37;6.00;;;5.10;99.90;;;;;;5004681;28;20493;-71
2023/03/06 03:49:38;;;;;;;12.20;6.80;;;5.00;99.90;;;;;;5008167;28;20477;-71
2023/03/06 03:52:07;;;;;;;11.70;5.87;;;5.10;99.90;;;;;;5006918;28;20468;-71
2023/03/06 03:54:34;;;;;;;11.60;6.47;;;5.00;99.90;;;;;;5008784;28;20868;-71
2023/03/06 03:57:00;;;;;;;8.87;5.30;;;4.90;99.90;;;;;;5009179;28;20527;-71
2023/03/06 03:59:27;;;;;;;8.40;5.20;;;4.90;99.90;;;;;;5001793;28;20428;-71
2023/03/06 04:01:54;;;;;;;10.90;5.50;;;4.90;99.90;;;;;;5007651;28;20486;-71
2023/03/06 04:04:22;;;;;;;10.40;5.60;;;4.90;99.90;;;;;;5015034;28;20444;-71
2023/03/06 04:06:49;;;;;;;9.90;6.27;;;4.90;99.90;;;;;;5009414;28;20443;-71
2023/03/06 04:09:17;;;;;;;5.63;4.37;;;4.90;99.90;;;;;;5006537;28;20459;-71
2023/03/06 04:11:44;;;;;;;6.13;5.43;;;4.90;99.90;;;;;;5010752;28;20507;-71
2023/03/06 04:14:11;;;;;;;6.33;4.53;;;4.80;99.90;;;;;;5001044;28;20447;-71
2023/03/06 04:16:37;;;;;;;8.27;4.90;;;4.70;99.90;;;;;;5006323;28;20475;-71
2023/03/06 04:19:04;;;;;;;4.70;3.20;;;4.70;99.90;;;;;;5007637;28;20421;-71
2023/03/06 04:21:31;;;;;;;7.67;4.67;;;4.80;99.90;;;;;;5002434;28;20436;-71
2023/03/06 04:23:58;;;;;;;6.60;4.47;;;4.90;99.90;;;;;;5011203;28;20421;-70
2023/03/06 04:26:26;;;;;;;16.93;3.33;;;4.80;99.90;;;;;;5005448;28;20484;-71
2023/03/06 04:28:54;;;;;;;5.13;4.63;;;4.80;99.90;;;;;;5010268;28;20455;-70
2023/03/06 04:31:21;;;;;;;15.40;4.70;;;4.70;99.90;;;;;;5006015;28;20955;-71
2023/03/06 04:33:48;;;;;;;8.73;4.43;;;4.70;99.90;;;;;;5004280;28;20960;-71
2023/03/06 04:36:26;;;;;;;5.20;3.57;;;4.60;99.90;;;;;;5006616;28;20450;-71
2023/03/06 04:38:53;;;;;;;7.30;4.63;;;4.70;99.90;;;;;;5010564;28;20541;-71
2023/03/06 04:41:20;;;;;;;7.50;4.03;;;4.70;99.90;;;;;;5007908;28;20552;-71
2023/03/06 04:43:48;;;;;;;6.50;3.73;;;4.80;99.90;;;;;;5010702;28;20924;-71
2023/03/06 04:46:16;;;;;;;7.33;5.67;;;4.90;99.90;;;;;;5015661;28;20448;-70
2023/03/06 04:48:43;;;;;;;11.97;5.43;;;4.90;99.90;;;;;;5001823;28;20559;-70
2023/03/06 04:51:12;;;;;;;7.90;4.67;;;4.90;99.90;;;;;;5012511;28;20492;-70
2023/03/06 04:53:39;;;;;;;4.40;3.90;;;4.80;99.90;;;;;;5007052;28;20511;-71
2023/03/06 04:56:06;;;;;;;6.10;3.23;;;4.90;99.90;;;;;;5012125;28;20796;-71
2023/03/06 04:58:33;;;;;;;3.90;2.80;;;4.90;99.90;;;;;;5000019;28;20457;-71
2023/03/06 05:01:02;;;;;;;7.30;3.17;;;4.80;99.90;;;;;;5006401;28;20458;-71
2023/03/06 05:03:29;;;;;;;3.83;3.53;;;4.50;99.90;;;;;;5011877;28;20535;-71
2023/03/06 05:05:56;;;;;;;5.20;2.90;;;4.40;99.90;;;;;;5006263;28;20474;-71
2023/03/06 05:08:23;;;;;;;3.10;2.10;;;4.40;99.90;;;;;;5005270;28;20461;-71
2023/03/06 05:10:54;;;;;;;5.17;2.57;;;4.30;99.90;;;;;;5004634;28;20512;-71
2023/03/06 05:13:21;;;;;;;6.97;4.20;;;4.30;99.90;;;;;;5008460;28;20454;-71
2023/03/06 05:15:48;;;;;;;3.40;2.90;;;4.30;99.90;;;;;;5012074;28;20455;-71
2023/03/06 05:18:17;;;;;;;6.30;3.87;;;4.20;99.90;;;;;;5008884;28;20546;-71
2023/03/06 05:20:44;;;;;;;6.27;4.13;;;4.20;99.90;;;;;;5002406;28;20439;-71
2023/03/06 05:23:11;;;;;;;5.50;2.40;;;4.20;99.90;;;;;;5008285;28;20442;-72
2023/03/06 05:25:40;;;;;;;3.43;3.00;;;4.20;99.90;;;;;;5014412;28;20481;-71
2023/03/06 05:28:07;;;;;;;3.53;3.03;;;4.20;99.90;;;;;;5010472;28;20459;-71
2023/03/06 05:30:35;;;;;;;7.10;5.97;;;4.10;99.90;;;;;;5006218;28;20494;-71
2023/03/06 05:33:02;;;;;;;6.40;4.53;;;4.00;99.90;;;;;;5009142;28;20458;-71
2023/03/06 05:35:30;;;;;;;3.17;2.30;;;4.00;99.90;;;;;;5007694;28;20467;-71
2023/03/06 05:38:04;;;;;;;2.80;2.40;;;4.10;99.90;;;;;;5007779;28;20481;-71
2023/03/06 05:40:31;;;;;;;4.33;2.60;;;4.10;99.90;;;;;;5007777;28;20428;-71
2023/03/06 05:42:58;;;;;;;5.37;3.57;;;4.10;99.90;;;;;;5002278;28;20436;-71
2023/03/06 05:45:25;;;;;;;2.93;2.13;;;4.10;99.90;;;;;;5007611;28;20507;-71
2023/03/06 05:47:52;;;;;;;7.17;3.57;;;4.00;99.90;;;;;;5005518;28;20535;-71
2023/03/06 05:50:22;;;;;;;5.10;2.77;;;4.10;99.90;;;;;;5008504;28;20459;-71
2023/03/06 05:52:50;;;;;;;6.50;2.67;;;4.10;99.90;;;;;;5002605;28;20463;-71
2023/03/06 05:55:18;;;;;;;3.43;3.13;;;4.10;99.90;;;;;;5007322;28;20828;-71
2023/03/06 05:57:45;;;;;;;5.50;4.10;;;4.10;99.90;;;;;;5014131;28;20481;-71
2023/03/06 06:00:14;;;;;;;5.70;3.77;;;4.10;99.90;;;;;;5011606;28;20418;-71
2023/03/06 06:02:42;;;;;;;9.03;4.37;;;4.10;99.90;;;;;;5014367;28;20466;-70
2023/03/06 06:05:13;;;;;;;9.37;4.17;;;4.10;99.90;;;;;;4996153;28;20432;-70
2023/03/06 06:07:40;;;;;;;9.10;4.23;;;4.10;99.90;;;;;;5006510;28;20468;-71
2023/03/06 06:10:10;;;;;;;12.03;6.13;;;4.00;99.90;;;;;;5002131;28;20571;-71
2023/03/06 06:12:38;;;;;;;9.00;4.23;;;4.00;99.90;;;;;;5003479;28;20454;-71
2023/03/06 06:15:06;;;;;;;5.67;4.47;;;4.20;99.90;;;;;;5015947;28;20511;-70
2023/03/06 06:17:33;;;;;;;5.00;3.60;;;4.20;99.90;;;;;;5014893;28;20451;-71
2023/03/06 06:20:02;;;;;;;5.53;3.87;;;4.30;99.90;;;;;;5001559;28;20935;-70
2023/03/06 06:22:30;;;;;;;9.70;4.27;;;4.30;99.90;;;;;;5002231;28;20453;-75
2023/03/06 06:24:57;;;;;;;5.70;3.70;;;4.30;99.90;;;;;;5006665;28;20445;-71
2023/03/06 06:27:26;;;;;;;10.73;3.03;;;4.30;99.90;;;;;;5004437;28;20872;-71
2023/03/06 06:29:53;;;;;;;7.80;5.47;;;4.30;99.90;;;;;;5012309;28;20473;-71
2023/03/06 06:32:20;;;;;;;7.90;4.73;;;4.40;99.90;;;;;;5013781;28;20455;-71
2023/03/06 06:34:47;;;;;;;7.53;5.03;;;4.40;99.90;;;;;;5005355;28;20454;-71
2023/03/06 06:37:14;;;;;;;18.40;7.57;;;4.40;99.90;;;;;;5016492;28;20452;-71
2023/03/06 06:39:41;;;;;;;11.37;5.63;;;4.50;99.90;;;;;;5007997;28;20493;-71
2023/03/06 06:42:13;;;;;;;8.30;7.10;;;4.50;99.90;;;;;;5015649;28;20453;-73
2023/03/06 06:44:48;;;;;;;11.00;5.20;;;4.60;99.90;;;;;;5004346;28;20428;-71
2023/03/06 06:47:15;;;;;;;8.57;4.27;;;4.70;99.90;;;;;;5008786;28;20461;-71
2023/03/06 06:49:42;;;;;;;7.20;3.90;;;4.60;99.90;;;;;;5015861;28;20517;-71
2023/03/06 06:52:10;;;;;;;7.83;5.80;;;4.60;99.90;;;;;;5003024;28;20429;-71
2023/03/06 06:54:37;;;;;;;11.10;5.43;;;4.50;99.90;;;;;;4998948;28;20545;-71
2023/03/06 06:57:04;;;;;;;8.73;4.27;;;4.50;99.90;;;;;;5002599;28;21117;-71
2023/03/06 06:59:31;;;;;;;5.43;3.60;;;4.50;99.90;;;;;;4997968;28;20444;-71
2023/03/06 07:01:59;;;;;;;7.23;4.20;;;4.40;99.90;;;;;;5006002;28;20968;-71
2023/03/06 07:04:26;;;;;;;5.10;3.53;;;4.40;99.90;;;;;;5014478;28;20446;-71
2023/03/06 07:06:55;;;;;;;13.00;5.50;;;4.30;99.90;;;;;;5020569;28;20527;-71
2023/03/06 07:09:22;;;;;;;11.70;5.80;;;4.30;99.90;;;;;;5014945;28;20480;-71
2023/03/06 07:11:49;;;;;;;6.00;4.17;;;4.30;99.90;;;;;;5000748;28;20518;-71
2023/03/06 07:14:16;;;;;;;18.83;6.63;;;4.50;99.90;;;;;;5015141;28;20449;-71
2023/03/06 07:16:43;;;;;;;20.07;6.20;;;4.40;99.90;;;;;;4998898;28;20817;-71
2023/03/06 07:19:11;;;;;;;11.30;6.23;;;4.50;99.90;;;;;;5011842;28;20515;-70
2023/03/06 07:21:38;;;;;;;12.33;7.90;;;4.80;99.90;;;;;;5010797;28;20453;-70
2023/03/06 07:24:06;;;;;;;14.43;8.50;;;4.90;99.90;;;;;;5005517;28;20529;-71
2023/03/06 07:26:32;;;;;;;11.50;6.87;;;4.90;99.90;;;;;;5004277;28;20528;-70
2023/03/06 07:28:59;;;;;;;19.73;9.63;;;4.90;99.90;;;;;;5005000;28;20633;-70
2023/03/06 07:31:27;;;;;;;13.70;6.93;;;4.90;99.90;;;;;;4998919;28;20420;-70
2023/03/06 07:33:55;;;;;;;10.57;5.33;;;4.70;99.90;;;;;;4998217;28;20909;-70
2023/03/06 07:36:24;;;;;;;19.97;9.13;;;4.60;99.90;;;;;;5002779;28;20482;-70
2023/03/06 07:38:51;;;;;;;22.47;10.70;;;4.60;99.90;;;;;;5008267;28;20504;-70
2023/03/06 07:41:18;;;;;;;21.50;11.37;;;4.70;99.90;;;;;;5019981;28;20425;-70
2023/03/06 07:43:46;;;;;;;12.80;7.57;;;4.70;99.90;;;;;;5007891;28;20433;-70
2023/03/06 07:46:14;;;;;;;17.37;8.87;;;4.90;99.90;;;;;;4997196;28;20827;-70
2023/03/06 07:48:41;;;;;;;19.40;9.33;;;4.90;99.90;;;;;;5011962;28;20463;-72
2023/03/06 07:51:22;;;;;;;28.60;11.27;;;4.90;99.90;;;;;;5015785;28;20552;-72
2023/03/06 07:53:50;;;;;;;11.77;6.73;;;4.90;99.90;;;;;;5012624;28;20473;-70
2023/03/06 07:56:17;;;;;;;15.47;9.10;;;4.80;99.90;;;;;;5005762;28;20638;-71
2023/03/06 07:58:47;;;;;;;6.83;6.30;;;4.70;99.90;;;;;;5002882;28;20931;-70
2023/03/06 08:01:17;;;;;;;7.93;3.43;;;4.60;99.90;;;;;;5003093;28;20431;-70
2023/03/06 08:03:44;;;;;;;17.47;8.23;;;4.60;99.90;;;;;;5008555;28;20446;-70
2023/03/06 08:06:12;;;;;;;15.83;7.63;;;4.60;99.90;;;;;;5011875;28;20500;-70
2023/03/06 08:08:41;;;;;;;14.07;10.33;;;4.40;99.90;;;;;;5002013;28;20512;-70
2023/03/06 08:11:11;;;;;;;10.63;5.07;;;4.30;99.90;;;;;;5001670;28;20525;-70
2023/03/06 08:13:37;;;;;;;20.70;8.60;;;4.40;99.90;;;;;;5009406;28;20566;-70
2023/03/06 08:16:05;;;;;;;18.60;6.57;;;4.40;99.90;;;;;;5019388;28;20469;-70
2023/03/06 08:18:33;;;;;;;10.80;7.07;;;4.40;99.90;;;;;;5003256;28;20495;-70
2023/03/06 08:21:04;;;;;;;21.10;10.03;;;4.40;99.90;;;;;;5006404;28;20458;-70
2023/03/06 08:23:31;;;;;;;19.47;8.80;;;4.60;99.90;;;;;;5001270;28;20424;-70
2023/03/06 08:25:59;;;;;;;13.03;7.10;;;4.70;99.90;;;;;;5012672;28;20461;-70
2023/03/06 08:28:27;;;;;;;12.70;7.70;;;4.80;99.90;;;;;;5005618;28;20464;-70
2023/03/06 08:30:54;;;;;;;12.57;7.67;;;4.70;99.90;;;;;;5007620;28;20452;-71
2023/03/06 08:33:22;;;;;;;9.93;8.17;;;4.80;99.90;;;;;;5003555;28;20440;-69
2023/03/06 08:35:49;;;;;;;11.60;5.30;;;4.70;99.90;;;;;;5014578;28;20544;-70
2023/03/06 08:38:16;;;;;;;16.20;9.30;;;4.60;99.90;;;;;;5005573;28;20960;-70
2023/03/06 08:40:43;;;;;;;22.20;8.97;;;4.60;99.90;;;;;;4999572;28;20814;-70
2023/03/06 08:43:10;;;;;;;16.73;7.70;;;4.70;99.90;;;;;;5006950;28;20514;-71
2023/03/06 08:45:39;;;;;;;8.70;4.50;;;4.60;99.90;;;;;;5004489;28;20496;-70
2023/03/06 08:48:06;;;;;;;19.23;8.03;;;4.70;99.90;;;;;;5015284;28;20454;-70
2023/03/06 08:50:33;;;;;;;20.70;11.20;;;4.70;99.90;;;;;;5013860;28;20542;-70
2023/03/06 08:53:00;;;;;;;25.13;11.40;;;4.70;99.90;;;;;;5013514;28;20453;-70
2023/03/06 08:55:27;;;;;;;12.60;5.73;;;4.70;99.90;;;;;;4994425;28;20623;-70
2023/03/06 08:57:55;;;;;;;13.27;7.23;;;4.70;99.90;;;;;;4996886;28;20473;-70
2023/03/06 09:00:22;;;;;;;20.63;7.73;;;4.60;99.90;;;;;;5003861;28;20804;-70
2023/03/06 09:02:50;;;;;;;13.87;6.27;;;4.60;99.90;;;;;;5012843;28;20494;-70
2023/03/06 09:05:25;;;;;;;6.90;4.10;;;4.50;99.90;;;;;;5011596;28;20428;-72
2023/03/06 09:07:52;;;;;;;17.97;10.40;;;4.50;99.90;;;;;;5007406;28;20456;-72
2023/03/06 09:10:21;;;;;;;17.57;8.40;;;4.50;99.90;;;;;;4999071;28;20572;-70
2023/03/06 09:12:48;;;;;;;13.17;8.83;;;4.50;99.90;;;;;;4996759;28;20549;-70
2023/03/06 09:15:15;;;;;;;18.20;10.20;;;4.60;99.90;;;;;;5007003;28;20502;-71
2023/03/06 09:17:42;;;;;;;17.33;9.33;;;4.80;99.90;;;;;;5005328;28;20475;-70
2023/03/06 09:20:12;;;;;;;8.43;5.43;;;4.70;99.90;;;;;;5000067;28;20468;-70
2023/03/06 09:22:41;;;;;;;5.33;4.80;;;4.70;99.90;;;;;;5021158;28;20528;-70
2023/03/06 09:25:09;;;;;;;14.63;7.07;;;4.80;99.90;;;;;;5010011;28;20516;-70
2023/03/06 09:27:36;;;;;;;13.50;7.03;;;4.80;99.90;;;;;;5001155;28;20444;-70
2023/03/06 09:30:05;;;;;;;13.03;7.63;;;4.80;99.90;;;;;;4996295;28;20631;-70
2023/03/06 09:32:35;;;;;;;13.23;8.27;;;4.90;99.90;;;;;;5002583;28;20537;-70
2023/03/06 09:35:02;;;;;;;11.80;7.53;;;5.00;99.90;;;;;;4998559;28;20512;-70
2023/03/06 09:37:30;;;;;;;16.33;8.37;;;5.00;99.90;;;;;;5000387;28;20536;-70
2023/03/06 09:39:57;;;;;;;18.83;8.03;;;4.90;99.90;;;;;;5004841;28;20537;-70
2023/03/06 09:42:25;;;;;;;20.70;8.90;;;4.90;99.90;;;;;;5006082;28;20425;-70
2023/03/06 09:44:55;;;;;;;18.53;6.80;;;4.80;99.90;;;;;;5009280;28;20940;-70
2023/03/06 09:47:45;;;;;;;18.37;10.83;;;4.90;99.90;;;;;;5012975;28;20455;-70
2023/03/06 09:50:23;;;;;;;12.03;6.70;;;5.00;99.90;;;;;;5012289;28;20480;-70
2023/03/06 09:53:08;;;;;;;16.73;7.90;;;5.20;99.90;;;;;;5015432;28;20449;-70
2023/03/06 09:55:38;;;;;;;11.57;6.37;;;5.10;99.90;;;;;;5011006;28;20927;-70
2023/03/06 09:58:11;;;;;;;23.40;10.23;;;5.10;99.90;;;;;;5008579;28;20465;-70
2023/03/06 10:00:41;;;;;;;6.60;5.03;;;5.00;99.90;;;;;;5004041;28;20420;-69
2023/03/06 10:03:19;;;;;;;19.50;8.03;;;4.90;99.90;;;;;;5009241;28;20456;-70
2023/03/06 10:05:51;;;;;;;14.90;7.43;;;4.90;99.90;;;;;;5011757;28;20511;-70
2023/03/06 10:08:24;;;;;;;12.53;6.63;;;4.90;99.90;;;;;;5006988;28;20438;-70
2023/03/06 10:11:02;;;;;;;13.87;6.13;;;5.10;99.90;;;;;;5010374;28;20477;-70
2023/03/06 10:13:39;;;;;;;12.40;8.30;;;5.10;99.90;;;;;;5011813;28;20439;-70
2023/03/06 10:16:28;;;;;;;7.20;4.93;;;5.00;99.90;;;;;;5002353;28;20803;-70
2023/03/06 10:19:01;;;;;;;19.93;11.20;;;5.10;99.90;;;;;;5004475;28;20415;-70
2023/03/06 10:21:39;;;;;;;8.87;5.60;;;5.10;99.90;;;;;;5004772;28;20949;-70
2023/03/06 10:24:20;;;;;;;11.10;5.60;;;5.10;99.90;;;;;;5014979;28;20487;-71
2023/03/06 10:26:52;;;;;;;9.73;6.40;;;5.20;99.90;;;;;;5004744;28;20832;-71
2023/03/06 10:29:43;;;;;;;7.20;3.07;;;5.00;99.90;;;;;;5029053;28;20495;-71
2023/03/06 10:32:19;;;;;;;10.03;4.10;;;4.90;99.90;;;;;;5007356;28;20484;-71
2023/03/06 10:34:46;;;;;;;12.60;4.37;;;4.90;99.90;;;;;;5007729;28;20932;-71
2023/03/06 10:37:19;;;;;;;5.33;3.60;;;4.80;99.90;;;;;;5008673;28;20439;-71
2023/03/06 10:39:53;;;;;;;14.03;4.47;;;4.80;99.90;;;;;;5022686;28;20527;-71
2023/03/06 10:42:20;;;;;;;2.07;1.87;;;4.90;99.90;;;;;;4998620;28;20850;-71
2023/03/06 10:44:47;;;;;;;9.17;5.53;;;5.10;99.90;;;;;;5014575;28;20467;-71
2023/03/06 10:47:28;;;;;;;5.27;4.17;;;5.00;99.90;;;;;;5005863;28;20814;-72
2023/03/06 10:50:00;;;;;;;8.20;4.07;;;5.10;99.90;;;;;;5005633;28;20449;-71
2023/03/06 10:52:30;;;;;;;5.57;2.80;;;5.10;99.90;;;;;;5009154;28;20454;-71
2023/03/06 10:55:23;;;;;;;4.07;3.00;;;5.10;99.90;;;;;;5010294;28;20541;-71
2023/03/06 10:57:51;;;;;;;7.50;4.10;;;5.10;99.90;;;;;;5012902;28;20462;-71
2023/03/06 11:00:27;;;;;;;7.10;4.10;;;4.90;99.90;;;;;;5014385;28;20426;-71
2023/03/06 11:03:13;;;;;;;4.07;3.40;;;5.00;99.90;;;;;;5013124;28;20424;-71
2023/03/06 11:05:40;;;;;;;8.00;5.33;;;5.10;99.90;;;;;;5011124;28;20439;-71
2023/03/06 11:08:20;;;;;;;6.27;3.90;;;5.40;99.90;;;;;;5011909;28;21024;-71
2023/03/06 11:10:56;;;;;;;13.97;5.00;;;5.50;99.90;;;;;;5009999;28;20557;-70
2023/03/06 11:13:26;;;;;;;9.87;4.30;;;5.70;99.90;;;;;;5007182;28;20445;-71
2023/03/06 11:15:59;;;;;;;7.27;4.70;;;5.90;99.90;;;;;;5019715;28;20451;-70
2023/03/06 11:18:33;;;;;;;5.57;3.83;;;6.00;99.90;;;;;;5014014;28;20910;-71
2023/03/06 11:21:02;;;;;;;5.23;2.90;;;5.90;99.90;;;;;;5009743;28;20436;-71
2023/03/06 11:23:39;;;;;;;6.37;4.00;;;5.90;99.90;;;;;;5024507;28;20452;-70
2023/03/06 11:26:21;;;;;;;7.20;3.80;;;6.00;99.90;;;;;;5027032;28;20432;-71
2023/03/06 11:28:53;;;;;;;8.13;3.37;;;6.20;99.90;;;;;;5009389;28;20439;-71
2023/03/06 11:31:22;;;;;;;2.73;2.53;;;6.30;99.90;;;;;;5006301;28;20557;-71
2023/03/06 11:33:53;;;;;;;6.30;4.17;;;6.40;99.90;;;;;;5014004;28;20449;-71
2023/03/06 11:36:27;;;;;;;8.87;3.37;;;6.40;99.90;;;;;;5016451;28;20440;-71
2023/03/06 11:38:55;;;;;;;3.70;2.77;;;6.70;99.90;;;;;;5017678;28;20480;-71
2023/03/06 11:41:33;;;;;;;3.40;2.60;;;6.90;99.90;;;;;;5013536;28;20799;-71
2023/03/06 11:44:13;;;;;;;6.07;2.57;;;7.00;99.90;;;;;;5005991;28;20977;-71
2023/03/06 11:46:48;;;;;;;7.70;4.20;;;7.10;99.90;;;;;;5002790;28;20440;-71
2023/03/06 11:49:22;;;;;;;4.40;3.30;;;7.20;99.90;;;;;;5010495;28;20442;-71
2023/03/06 11:51:54;;;;;;;4.10;3.30;;;7.00;99.90;;;;;;5009534;28;20491;-71
2023/03/06 11:54:21;;;;;;;7.23;4.33;;;6.60;99.90;;;;;;5008720;28;20450;-71
2023/03/06 11:56:54;;;;;;;4.03;2.40;;;6.40;99.90;;;;;;5010075;28;21013;-71
2023/03/06 11:59:47;;;;;;;4.80;2.60;;;6.40;99.90;;;;;;5003587;28;20499;-71
2023/03/06 12:02:29;;;;;;;6.10;2.67;;;6.40;99.90;;;;;;5007727;28;20433;-71
2023/03/06 12:05:08;;;;;;;4.00;3.23;;;7.30;99.90;;;;;;5012606;28;20830;-71
2023/03/06 12:07:40;;;;;;;4.20;2.27;;;9.30;99.90;;;;;;5002811;28;20454;-71
2023/03/06 12:10:18;;;;;;;7.57;4.50;;;10.40;99.90;;;;;;4999021;28;20489;-71
2023/03/06 12:13:12;;;;;;;4.23;3.63;;;11.10;99.90;;;;;;5007183;28;20502;-71
2023/03/06 12:16:01;;;;;;;3.57;2.30;;;10.90;99.90;;;;;;5003999;28;20452;-71
2023/03/06 12:18:42;;;;;;;3.07;2.47;;;11.60;99.90;;;;;;5011052;28;20478;-71
2023/03/06 12:21:17;;;;;;;3.27;2.13;;;12.30;99.90;;;;;;5000976;28;20462;-71
2023/03/06 12:24:06;;;;;;;5.67;2.30;;;13.10;99.90;;;;;;5010132;28;20523;-72
2023/03/06 12:26:57;;;;;;;2.37;1.60;;;13.20;99.90;;;;;;5004792;28;20458;-72
2023/03/06 12:29:51;;;;;;;3.47;2.23;;;12.50;99.90;;;;;;5007862;28;20469;-71
2023/03/06 12:32:27;;;;;;;5.00;3.20;;;11.30;99.90;;;;;;5009956;28;20479;-71
2023/03/06 12:35:21;;;;;;;3.73;2.70;;;10.30;99.90;;;;;;5009258;28;20460;-71
2023/03/06 12:37:57;;;;;;;3.63;2.50;;;9.50;99.90;;;;;;5011919;28;20528;-71
2023/03/06 12:40:48;;;;;;;4.10;2.93;;;9.10;99.90;;;;;;5009394;28;20518;-72
2023/03/06 12:43:45;;;;;;;4.27;2.17;;;8.40;99.90;;;;;;5019496;28;20435;-71
2023/03/06 12:46:16;;;;;;;5.23;2.33;;;8.10;99.90;;;;;;5013317;28;20503;-71
2023/03/06 12:48:47;;;;;;;7.27;2.30;;;8.00;99.90;;;;;;5007760;28;20958;-71
2023/03/06 12:51:19;;;;;;;2.77;2.53;;;8.00;99.90;;;;;;5002157;28;20477;-71
2023/03/06 12:53:47;;;;;;;2.40;2.17;;;7.80;99.90;;;;;;5012864;28;20449;-70
2023/03/06 12:56:17;;;;;;;3.40;2.57;;;7.90;99.90;;;;;;4982841;28;20484;-70
2023/03/06 12:58:49;;;;;;;3.93;2.20;;;7.70;99.90;;;;;;5009275;28;20533;-70
2023/03/06 13:01:35;;;;;;;3.57;2.13;;;7.60;99.90;;;;;;5005980;28;21017;-70
2023/03/06 13:04:20;;;;;;;2.83;2.63;;;7.70;99.90;;;;;;4996546;28;20436;-71
2023/03/06 13:07:14;;;;;;;6.53;3.93;;;7.70;99.90;;;;;;5003438;28;20552;-71
2023/03/06 13:10:03;;;;;;;5.97;3.03;;;7.50;99.90;;;;;;5003593;28;20438;-71